Time;durP1;ratioP1;P1;durP2;ratioP2;P2;SDS_P1;SDS_P2;PMS_P1;PMS_P2;Temp;Humidity;BMP_temperature;BMP_pressure;BME280_temperature;BME280_humidity;BME280_pressure;Samples;Min_cycle;Max_cycle;Signal;HPM_P1;HPM_P2
2023/05/20 00:00:53;;;;;;;3.05;1.70;;;;;;;;;;6129303;23;20021;-86
2023/05/20 00:03:19;;;;;;;2.55;1.70;;;;;;;;;;6127951;23;20006;-82
2023/05/20 00:05:45;;;;;;;3.22;1.70;;;;;;;;;;6127880;23;20002;-87
2023/05/20 00:08:11;;;;;;;4.65;1.60;;;;;;;;;;6129721;23;20536;-85
2023/05/20 00:10:38;;;;;;;3.78;1.75;;;;;;;;;;6126543;23;20130;-88
2023/05/20 00:13:05;;;;;;;3.47;1.83;;;;;;;;;;6130064;23;20018;-88
2023/05/20 00:15:31;;;;;;;4.45;1.70;;;;;;;;;;6129308;23;20002;-87
2023/05/20 00:17:57;;;;;;;2.80;1.55;;;;;;;;;;6128161;23;20016;-84
2023/05/20 00:20:24;;;;;;;3.15;1.60;;;;;;;;;;6130381;23;20084;-86
2023/05/20 00:22:49;;;;;;;3.28;1.63;;;;;;;;;;6128856;23;20041;-88
2023/05/20 00:25:15;;;;;;;3.40;1.80;;;;;;;;;;6126420;23;20009;-87
2023/05/20 00:27:42;;;;;;;3.67;1.48;;;;;;;;;;6129177;23;20006;-86
2023/05/20 00:30:08;;;;;;;3.58;1.77;;;;;;;;;;6125564;23;20014;-87
2023/05/20 00:32:34;;;;;;;6.05;1.83;;;;;;;;;;6127189;23;20037;-86
2023/05/20 00:35:00;;;;;;;2.97;1.70;;;16.00;91.90;;;;;;6128237;23;20083;-88
2023/05/20 00:37:27;;;;;;;5.35;1.70;;;;;;;;;;6127070;23;20006;-85
2023/05/20 00:39:53;;;;;;;4.75;1.70;;;;;;;;;;6127581;23;20006;-86
2023/05/20 00:42:23;;;;;;;5.43;1.48;;;16.00;91.90;;;;;;6127709;23;20048;-85
2023/05/20 00:44:49;;;;;;;3.40;1.85;;;;;;;;;;6126607;23;20049;-87
2023/05/20 00:47:16;;;;;;;4.70;1.50;;;15.90;92.10;;;;;;6127430;23;20085;-85
2023/05/20 00:49:43;;;;;;;4.75;1.70;;;15.90;92.20;;;;;;6126980;23;20118;-85
2023/05/20 00:52:10;;;;;;;3.03;1.70;;;;;;;;;;6124183;23;20006;-87
2023/05/20 00:54:36;;;;;;;4.57;1.75;;;;;;;;;;6125664;23;20652;-86
2023/05/20 00:57:05;;;;;;;6.60;2.08;;;15.90;92.30;;;;;;6127977;23;20012;-86
2023/05/20 00:59:31;;;;;;;4.05;1.67;;;;;;;;;;6128066;23;20009;-88
2023/05/20 01:01:57;;;;;;;4.80;1.50;;;;;;;;;;6125260;23;20028;-87
2023/05/20 01:04:23;;;;;;;3.33;1.70;;;;;;;;;;6126403;23;20120;-86
2023/05/20 01:06:49;;;;;;;2.75;1.42;;;;;;;;;;6126121;23;20002;-87
2023/05/20 01:09:15;;;;;;;4.18;2.10;;;;;;;;;;6102722;23;20021;-89
2023/05/20 01:11:47;;;;;;;4.72;2.00;;;15.80;92.60;;;;;;6126716;23;20065;-88
2023/05/20 01:14:16;;;;;;;3.65;1.90;;;15.80;92.70;;;;;;6125200;23;20014;-84
2023/05/20 01:16:42;;;;;;;6.32;2.20;;;;;;;;;;6126032;23;20090;-88
2023/05/20 01:19:36;;;;;;;4.55;2.00;;;15.90;92.80;;;;;;6125680;23;20028;-85
2023/05/20 01:22:06;;;;;;;4.70;1.80;;;15.80;92.80;;;;;;6125240;23;20006;-85
2023/05/20 01:24:32;;;;;;;3.95;1.80;;;;;;;;;;6126352;23;19998;-87
2023/05/20 01:26:58;;;;;;;3.60;1.80;;;;;;;;;;6123090;23;20010;-88
2023/05/20 01:29:26;;;;;;;4.57;1.80;;;15.80;93.00;;;;;;6126674;23;20009;-87
2023/05/20 01:31:55;;;;;;;4.65;1.95;;;15.80;93.10;;;;;;6123188;23;20017;-84
2023/05/20 01:34:22;;;;;;;6.03;1.80;;;;;;;;;;6127274;23;20010;-85
2023/05/20 01:36:49;;;;;;;3.08;1.60;;;15.80;93.20;;;;;;6125288;23;20010;-84
2023/05/20 01:39:15;;;;;;;5.35;1.90;;;;;;;;;;6129672;23;20002;-86
2023/05/20 01:41:41;;;;;;;3.50;1.80;;;15.80;93.30;;;;;;6126850;23;20012;-86
2023/05/20 01:44:07;;;;;;;6.15;1.88;;;;;;;;;;6129683;23;19998;-87
2023/05/20 01:46:33;;;;;;;4.15;1.90;;;;;;;;;;6129785;23;20511;-86
2023/05/20 01:48:59;;;;;;;3.15;1.90;;;;;;;;;;6127758;23;20009;-87
2023/05/20 01:51:26;;;;;;;4.53;1.95;;;;;;;;;;6130460;23;20021;-87
2023/05/20 01:53:52;;;;;;;5.82;2.20;;;;;;;;;;6133603;23;20083;-85
2023/05/20 01:56:18;;;;;;;4.72;1.60;;;;;;;;;;6128616;23;20002;-87
2023/05/20 01:58:44;;;;;;;3.58;1.75;;;;;;;;;;6130309;23;20026;-88
2023/05/20 02:01:10;;;;;;;5.90;2.00;;;;;;;;;;6127991;23;20014;-85
2023/05/20 02:03:37;;;;;;;2.72;1.70;;;;;;;;;;6128915;23;20050;-85
2023/05/20 02:06:03;;;;;;;3.50;1.90;;;;;;;;;;6128394;23;20010;-86
2023/05/20 02:08:29;;;;;;;3.45;1.85;;;;;;;;;;6130106;23;19998;-83
2023/05/20 02:10:55;;;;;;;4.75;1.98;;;;;;;;;;6131292;23;20002;-86
2023/05/20 02:13:21;;;;;;;4.53;1.85;;;;;;;;;;6139316;23;20084;-81
2023/05/20 02:15:47;;;;;;;4.43;1.98;;;;;;;;;;6140631;23;20070;-86
2023/05/20 02:18:17;;;;;;;3.85;1.73;;;;;;;;;;6140814;23;20006;-81
2023/05/20 02:20:43;;;;;;;5.70;1.77;;;;;;;;;;6136692;23;20020;-81
2023/05/20 02:23:09;;;;;;;3.13;1.80;;;;;;;;;;6137951;23;20005;-83
2023/05/20 02:25:35;;;;;;;3.30;2.00;;;;;;;;;;6138552;23;20049;-85
2023/05/20 02:28:04;;;;;;;3.85;2.15;;;;;;;;;;6133357;23;20436;-86
2023/05/20 02:30:30;;;;;;;3.83;1.70;;;;;;;;;;6122583;23;20002;-83
2023/05/20 02:32:56;;;;;;;6.05;1.98;;;;;;;;;;6123439;23;20093;-81
2023/05/20 02:35:22;;;;;;;3.25;1.90;;;;;;;;;;6124636;23;20128;-87
2023/05/20 02:37:48;;;;;;;4.63;2.00;;;;;;;;;;6124876;23;20397;-86
2023/05/20 02:40:14;;;;;;;4.70;2.10;;;;;;;;;;6125918;23;20005;-86
2023/05/20 02:42:40;;;;;;;4.32;1.77;;;15.40;95.10;;;;;;6124990;23;20089;-87
2023/05/20 02:45:06;;;;;;;9.63;2.10;;;15.40;95.10;;;;;;6125132;23;20013;-87
2023/05/20 02:47:32;;;;;;;4.45;1.77;;;;;;;;;;6125312;23;20006;-87
2023/05/20 02:49:58;;;;;;;4.07;1.70;;;;;;;;;;6125175;23;20010;-88
2023/05/20 02:52:25;;;;;;;3.40;2.05;;;;;;;;;;6126120;23;20432;-84
2023/05/20 02:54:51;;;;;;;5.82;2.00;;;;;;;;;;6126035;23;20026;-87
2023/05/20 02:57:17;;;;;;;5.90;2.17;;;15.30;95.60;;;;;;6126766;23;20314;-88
2023/05/20 02:59:43;;;;;;;3.85;2.10;;;;;;;;;;6126301;23;20049;-87
2023/05/20 03:02:09;;;;;;;5.15;2.20;;;;;;;;;;6126376;23;20002;-84
2023/05/20 03:04:37;;;;;;;4.68;2.38;;;;;;;;;;6126511;23;19998;-89
2023/05/20 03:07:06;;;;;;;3.33;2.03;;;15.30;96.00;;;;;;6125732;23;20013;-85
2023/05/20 03:09:32;;;;;;;3.92;2.13;;;;;;;;;;6126824;23;20014;-87
2023/05/20 03:11:58;;;;;;;6.00;2.10;;;;;;;;;;6126243;23;20013;-86
2023/05/20 03:14:24;;;;;;;3.42;1.95;;;;;;;;;;6125384;23;20006;-88
2023/05/20 03:16:50;;;;;;;3.88;2.40;;;;;;;;;;6125223;23;20737;-87
2023/05/20 03:19:16;;;;;;;4.70;2.03;;;;;;;;;;6126294;23;20777;-88
2023/05/20 03:21:42;;;;;;;4.30;1.98;;;;;;;;;;6124227;23;20045;-87
2023/05/20 03:24:09;;;;;;;4.10;2.42;;;;;;;;;;6128251;23;20002;-90
2023/05/20 03:26:37;;;;;;;5.30;2.17;;;;;;;;;;6126633;23;20009;-87
2023/05/20 03:29:04;;;;;;;5.15;2.28;;;15.00;97.10;;;;;;6127410;23;20010;-86
2023/05/20 03:31:30;;;;;;;7.22;2.30;;;14.80;99.20;;;;;;6128185;23;20260;-86
2023/05/20 03:33:56;;;;;;;4.00;2.20;;;;;;;;;;6131150;23;20013;-85
2023/05/20 03:36:22;;;;;;;4.15;2.15;;;;;;;;;;6130082;23;20012;-88
2023/05/20 03:38:48;;;;;;;4.22;2.00;;;;;;;;;;6125936;23;20009;-88
2023/05/20 03:41:14;;;;;;;7.90;2.20;;;;;;;;;;6124352;23;20042;-87
2023/05/20 03:43:40;;;;;;;2.95;2.00;;;;;;;;;;6124506;23;20314;-85
2023/05/20 03:46:06;;;;;;;5.30;2.00;;;;;;;;;;6125786;23;20005;-85
2023/05/20 03:48:32;;;;;;;5.10;1.98;;;;;;;;;;6124888;23;20029;-86
2023/05/20 03:50:58;;;;;;;4.47;2.13;;;;;;;;;;6124891;23;20459;-86
2023/05/20 03:53:24;;;;;;;4.13;2.08;;;;;;;;;;6130077;23;20006;-84
2023/05/20 03:55:50;;;;;;;5.03;2.50;;;;;;;;;;6131729;23;20037;-86
2023/05/20 03:58:16;;;;;;;4.68;2.20;;;;;;;;;;6140606;23;20005;-85
2023/05/20 04:00:43;;;;;;;3.97;2.17;;;;;;;;;;6139657;23;20006;-84
2023/05/20 04:03:09;;;;;;;7.57;2.40;;;;;;;;;;6141690;23;20030;-83
2023/05/20 04:05:36;;;;;;;4.25;1.90;;;;;;;;;;6130003;23;20105;-87
2023/05/20 04:08:03;;;;;;;4.25;2.17;;;;;;;;;;6124489;23;20040;-86
2023/05/20 04:10:31;;;;;;;5.53;2.22;;;;;;;;;;6129191;23;20025;-87
2023/05/20 04:12:57;;;;;;;3.65;2.03;;;;;;;;;;6128661;23;20012;-86
2023/05/20 04:15:23;;;;;;;5.65;2.03;;;14.40;99.40;;;;;;6128254;23;20006;-85
2023/05/20 04:17:51;;;;;;;4.95;2.33;;;14.50;99.50;;;;;;6129692;23;20069;-88
2023/05/20 04:20:17;;;;;;;5.35;2.08;;;;;;;;;;6130257;23;20010;-85
2023/05/20 04:22:43;;;;;;;3.88;2.03;;;;;;;;;;6133069;23;20372;-84
2023/05/20 04:25:09;;;;;;;6.25;2.30;;;;;;;;;;6143636;23;20006;-82
2023/05/20 04:27:38;;;;;;;3.20;1.90;;;;;;;;;;6145136;23;20025;-82
2023/05/20 04:30:05;;;;;;;3.60;1.80;;;14.40;99.80;;;;;;6143907;23;20021;-84
2023/05/20 04:32:35;;;;;;;3.88;2.17;;;;;;;;;;6144825;23;20006;-85
2023/05/20 04:35:01;;;;;;;4.65;2.30;;;;;;;;;;6145954;23;20435;-83
2023/05/20 04:37:27;;;;;;;8.27;2.60;;;14.50;99.90;;;;;;6145783;23;20010;-85
2023/05/20 04:39:54;;;;;;;3.47;1.95;;;;;;;;;;6145386;23;20009;-81
2023/05/20 04:42:21;;;;;;;3.90;2.42;;;;;;;;;;6146357;23;20002;-88
2023/05/20 04:44:47;;;;;;;3.65;2.10;;;;;;;;;;6145869;23;20025;-87
2023/05/20 04:47:14;;;;;;;6.65;2.50;;;14.60;99.90;;;;;;6147486;23;20010;-85
2023/05/20 04:49:41;;;;;;;3.58;2.08;;;;;;;;;;6146519;23;20006;-87
2023/05/20 04:52:07;;;;;;;3.78;2.30;;;;;;;;;;6149246;23;20439;-88
2023/05/20 04:54:33;;;;;;;3.50;2.10;;;;;;;;;;6148682;23;20010;-87
2023/05/20 04:56:59;;;;;;;4.70;2.20;;;;;;;;;;6146379;23;20021;-88
2023/05/20 04:59:25;;;;;;;4.10;2.47;;;;;;;;;;6145951;23;20090;-88
2023/05/20 05:01:51;;;;;;;3.72;2.20;;;;;;;;;;6144156;23;20002;-87
2023/05/20 05:04:17;;;;;;;4.55;2.03;;;;;;;;;;6143738;23;20348;-87
2023/05/20 05:06:43;;;;;;;4.40;2.30;;;;;;;;;;6143477;23;20081;-86
2023/05/20 05:09:09;;;;;;;4.25;2.30;;;;;;;;;;6145235;23;20006;-87
2023/05/20 05:11:35;;;;;;;4.63;2.20;;;;;;;;;;6148787;23;20041;-88
2023/05/20 05:14:01;;;;;;;5.15;2.20;;;;;;;;;;6146787;23;20054;-87
2023/05/20 05:16:27;;;;;;;3.72;1.83;;;;;;;;;;6150212;23;19998;-88
2023/05/20 05:18:53;;;;;;;4.85;2.10;;;;;;;;;;6147353;23;20013;-87
2023/05/20 05:21:19;;;;;;;6.10;2.08;;;;;;;;;;6146220;23;20017;-82
2023/05/20 05:23:45;;;;;;;5.60;2.60;;;;;;;;;;6145702;23;20002;-82
2023/05/20 05:26:11;;;;;;;4.03;2.00;;;;;;;;;;6145601;23;20016;-87
2023/05/20 05:28:37;;;;;;;4.95;2.25;;;;;;;;;;6146356;23;20002;-86
2023/05/20 05:31:04;;;;;;;3.65;2.13;;;;;;;;;;6148203;23;20215;-83
2023/05/20 05:33:30;;;;;;;4.03;2.42;;;;;;;;;;6147565;23;20002;-86
2023/05/20 05:35:57;;;;;;;4.25;2.20;;;;;;;;;;6146490;23;20009;-87
2023/05/20 05:38:24;;;;;;;3.90;1.75;;;;;;;;;;6146623;23;20016;-87
2023/05/20 05:40:50;;;;;;;4.50;2.22;;;;;;;;;;6144810;23;20057;-86
2023/05/20 05:43:16;;;;;;;4.95;2.30;;;;;;;;;;6144228;23;20332;-86
2023/05/20 05:45:42;;;;;;;8.13;2.17;;;;;;;;;;6142340;23;20026;-87
2023/05/20 05:48:08;;;;;;;3.38;2.03;;;;;;;;;;6133291;23;20017;-82
2023/05/20 05:50:34;;;;;;;4.50;2.22;;;;;;;;;;6126291;23;20006;-85
2023/05/20 05:53:00;;;;;;;4.25;2.45;;;;;;;;;;6127173;23;20016;-83
2023/05/20 05:55:26;;;;;;;3.80;2.30;;;;;;;;;;6124930;23;20034;-87
2023/05/20 05:57:52;;;;;;;4.38;2.60;;;;;;;;;;6125934;23;20467;-84
2023/05/20 06:00:18;;;;;;;3.20;2.00;;;;;;;;;;6124470;23;20093;-83
2023/05/20 06:02:45;;;;;;;5.30;2.58;;;;;;;;;;6124733;23;20006;-87
2023/05/20 06:05:11;;;;;;;5.35;2.45;;;;;;;;;;6124386;23;20013;-84
2023/05/20 06:07:37;;;;;;;4.53;2.58;;;;;;;;;;6124709;23;20002;-86
2023/05/20 06:10:03;;;;;;;4.97;2.38;;;;;;;;;;6127095;23;20006;-86
2023/05/20 06:12:29;;;;;;;5.13;2.35;;;;;;;;;;6124047;23;20002;-85
2023/05/20 06:14:55;;;;;;;4.65;2.42;;;;;;;;;;6125434;23;20067;-84
2023/05/20 06:17:21;;;;;;;4.50;2.40;;;;;;;;;;6126592;23;20009;-88
2023/05/20 06:19:47;;;;;;;6.43;2.90;;;;;;;;;;6124245;23;20800;-85
2023/05/20 06:22:13;;;;;;;3.92;2.80;;;;;;;;;;6124700;23;20049;-84
2023/05/20 06:24:39;;;;;;;4.90;2.70;;;;;;;;;;6123273;23;20308;-88
2023/05/20 06:27:05;;;;;;;5.10;2.70;;;;;;;;;;6121905;23;20009;-85
2023/05/20 06:29:31;;;;;;;8.10;2.50;;;;;;;;;;6124571;23;20015;-82
2023/05/20 06:31:57;;;;;;;6.50;2.47;;;;;;;;;;6127512;23;20487;-85
2023/05/20 06:34:23;;;;;;;3.92;2.70;;;;;;;;;;6119822;23;20053;-83
2023/05/20 06:36:49;;;;;;;6.35;2.40;;;;;;;;;;6114848;23;20018;-86
2023/05/20 06:39:15;;;;;;;4.93;2.53;;;;;;;;;;6119187;23;20463;-86
2023/05/20 06:41:41;;;;;;;5.22;2.65;;;;;;;;;;6121505;23;20005;-87
2023/05/20 06:44:07;;;;;;;4.75;2.70;;;;;;;;;;6124695;23;20329;-84
2023/05/20 06:46:34;;;;;;;4.60;2.92;;;;;;;;;;6120724;23;20010;-86
2023/05/20 06:49:00;;;;;;;4.15;2.97;;;;;;;;;;6123096;23;20014;-88
2023/05/20 06:51:27;;;;;;;4.70;2.95;;;16.60;99.40;;;;;;6123700;23;20036;-86
2023/05/20 06:53:53;;;;;;;3.72;2.50;;;;;;;;;;6121924;23;20010;-87
2023/05/20 06:56:20;;;;;;;7.55;2.50;;;;;;;;;;6119737;23;20010;-88
2023/05/20 06:58:46;;;;;;;5.45;2.40;;;;;;;;;;6120054;23;20006;-85
2023/05/20 07:01:12;;;;;;;5.82;2.70;;;;;;;;;;6122998;23;20032;-87
2023/05/20 07:03:38;;;;;;;6.45;2.88;;;;;;;;;;6125623;23;20010;-85
2023/05/20 07:06:04;;;;;;;4.55;2.90;;;;;;;;;;6126447;23;20017;-85
2023/05/20 07:08:30;;;;;;;6.70;2.80;;;;;;;;;;6126174;23;20006;-88
2023/05/20 07:10:56;;;;;;;4.57;2.75;;;;;;;;;;6123267;23;20080;-87
2023/05/20 07:13:22;;;;;;;5.05;2.65;;;;;;;;;;6123886;23;20006;-88
2023/05/20 07:15:49;;;;;;;5.15;3.00;;;;;;;;;;6123759;23;20006;-89
2023/05/20 07:18:15;;;;;;;4.95;2.83;;;;;;;;;;6124818;23;20339;-87
2023/05/20 07:20:41;;;;;;;4.00;2.67;;;;;;;;;;6119107;23;20105;-89
2023/05/20 07:23:07;;;;;;;4.72;2.90;;;;;;;;;;6124008;23;20380;-86
2023/05/20 07:25:33;;;;;;;4.80;2.90;;;;;;;;;;6127992;23;20088;-85
2023/05/20 07:27:59;;;;;;;8.55;3.40;;;;;;;;;;6124341;23;20061;-88
2023/05/20 07:30:26;;;;;;;4.53;2.90;;;;;;;;;;6127794;23;20021;-87
2023/05/20 07:32:52;;;;;;;5.00;3.45;;;;;;;;;;6126723;23;20089;-87
2023/05/20 07:35:18;;;;;;;5.75;3.10;;;;;;;;;;6123279;23;20018;-85
2023/05/20 07:37:44;;;;;;;5.45;2.88;;;;;;;;;;6122062;23;20429;-89
2023/05/20 07:40:11;;;;;;;5.38;2.95;;;17.40;99.10;;;;;;6124235;23;20006;-90
2023/05/20 07:42:37;;;;;;;5.78;2.88;;;;;;;;;;6117520;23;20010;-88
2023/05/20 07:45:06;;;;;;;4.68;2.80;;;17.60;99.20;;;;;;6118721;23;20005;-86
2023/05/20 07:47:32;;;;;;;5.00;2.92;;;17.50;99.20;;;;;;6119228;23;20010;-85
2023/05/20 07:49:58;;;;;;;4.78;2.80;;;;;;;;;;6114826;23;20341;-87
2023/05/20 07:52:24;;;;;;;4.40;2.80;;;;;;;;;;6105353;23;20366;-85
2023/05/20 07:54:50;;;;;;;6.15;2.95;;;;;;;;;;6128161;23;20099;-88
2023/05/20 07:57:16;;;;;;;4.03;2.63;;;18.00;98.60;;;;;;6123348;23;20088;-89
2023/05/20 07:59:42;;;;;;;5.15;2.78;;;;;;;;;;6119301;23;20046;-85
2023/05/20 08:02:08;;;;;;;4.85;2.80;;;;;;;;;;6123566;23;20010;-89
2023/05/20 08:04:34;;;;;;;4.32;2.88;;;18.50;98.40;;;;;;6124754;23;20004;-87
2023/05/20 08:07:01;;;;;;;5.53;3.20;;;;;;;;;;6119436;23;20085;-86
2023/05/20 08:09:27;;;;;;;5.05;3.28;;;;;;;;;;6123059;23;20006;-86
2023/05/20 08:11:53;;;;;;;4.70;3.35;;;;;;;;;;6124226;23;20374;-90
2023/05/20 08:14:19;;;;;;;5.13;3.30;;;;;;;;;;6121869;23;20017;-90
2023/05/20 08:16:45;;;;;;;5.93;3.25;;;;;;;;;;6123183;23;20010;-88
2023/05/20 08:19:11;;;;;;;7.10;3.50;;;18.70;98.10;;;;;;6123572;23;20444;-89
2023/05/20 08:21:37;;;;;;;5.15;3.72;;;;;;;;;;6124193;23;20037;-89
2023/05/20 08:24:03;;;;;;;4.93;3.13;;;;;;;;;;6124864;23;20080;-89
2023/05/20 08:26:29;;;;;;;4.40;3.20;;;;;;;;;;6124529;23;20151;-88
2023/05/20 08:28:55;;;;;;;5.28;3.13;;;;;;;;;;6122735;23;20303;-88
2023/05/20 08:31:21;;;;;;;8.32;3.63;;;;;;;;;;6123830;23;20310;-89
2023/05/20 08:33:47;;;;;;;4.50;2.75;;;;;;;;;;6119181;23;20017;-89
2023/05/20 08:36:14;;;;;;;5.85;3.30;;;;;;;;;;6121945;23;20341;-89
2023/05/20 08:38:40;;;;;;;8.73;3.05;;;;;;;;;;6119291;23;20010;-88
2023/05/20 08:41:06;;;;;;;7.53;3.15;;;;;;;;;;6114833;23;20010;-88
2023/05/20 08:43:31;;;;;;;6.63;3.30;;;18.60;98.50;;;;;;6119968;23;20005;-90
2023/05/20 08:45:57;;;;;;;4.82;3.15;;;;;;;;;;6114613;23;20013;-90
2023/05/20 08:48:26;;;;;;;4.82;2.95;;;18.60;98.50;;;;;;6116161;23;20048;-89
2023/05/20 08:50:53;;;;;;;3.95;2.72;;;;;;;;;;6118517;23;20006;-88
2023/05/20 08:53:20;;;;;;;5.63;3.13;;;18.60;98.70;;;;;;6116518;23;20104;-87
2023/05/20 08:55:52;;;;;;;3.78;2.83;;;18.80;98.60;;;;;;6111538;23;20480;-84
2023/05/20 08:58:18;;;;;;;6.43;3.17;;;19.00;98.00;;;;;;6106112;23;20017;-86
2023/05/20 09:00:44;;;;;;;6.18;3.83;;;;;;;;;;6116640;23;20478;-88
2023/05/20 09:03:10;;;;;;;5.40;3.53;;;;;;;;;;6117370;23;20005;-89
2023/05/20 09:05:36;;;;;;;4.88;3.28;;;;;;;;;;6120192;23;19998;-87
2023/05/20 09:08:10;;;;;;;4.90;3.25;;;;;;;;;;6117489;23;20010;-89
2023/05/20 09:10:36;;;;;;;5.35;3.20;;;;;;;;;;6118986;23;20010;-86
2023/05/20 09:13:03;;;;;;;6.75;3.97;;;;;;;;;;6117181;23;20344;-88
2023/05/20 09:15:29;;;;;;;4.75;3.20;;;;;;;;;;6119801;23;20084;-87
2023/05/20 09:17:55;;;;;;;6.07;3.70;;;;;;;;;;6120980;23;20010;-85
2023/05/20 09:20:22;;;;;;;5.43;4.07;;;;;;;;;;6118134;23;20029;-88
2023/05/20 09:22:51;;;;;;;8.02;3.42;;;;;;;;;;6118932;23;20076;-87
2023/05/20 09:25:21;;;;;;;8.05;3.83;;;19.00;98.10;;;;;;6120307;23;20002;-86
2023/05/20 09:27:47;;;;;;;4.35;3.20;;;;;;;;;;6117072;23;20010;-86
2023/05/20 09:30:13;;;;;;;5.57;3.50;;;;;;;;;;6122229;23;20014;-86
2023/05/20 09:32:39;;;;;;;6.72;3.38;;;;;;;;;;6117884;23;20006;-84
2023/05/20 09:35:05;;;;;;;4.65;3.20;;;19.00;98.40;;;;;;6120248;23;20005;-86
2023/05/20 09:37:34;;;;;;;5.63;3.72;;;19.00;98.40;;;;;;6122071;23;20006;-85
2023/05/20 09:40:08;;;;;;;6.18;4.30;;;;;;;;;;6124949;23;20024;-87
2023/05/20 09:42:37;;;;;;;6.22;3.85;;;;;;;;;;6126680;23;20061;-84
2023/05/20 09:45:04;;;;;;;5.32;3.03;;;;;;;;;;6125503;23;20005;-85
2023/05/20 09:47:30;;;;;;;6.35;3.67;;;;;;;;;;6141631;23;20108;-88
2023/05/20 09:49:57;;;;;;;6.93;4.20;;;;;;;;;;6159720;23;20009;-86
2023/05/20 09:52:23;;;;;;;5.63;3.58;;;;;;;;;;6157003;23;20084;-88
2023/05/20 09:54:49;;;;;;;5.78;3.20;;;;;;;;;;6160003;23;20010;-88
2023/05/20 09:57:15;;;;;;;5.75;3.47;;;;;;;;;;6155062;23;20029;-87
2023/05/20 09:59:41;;;;;;;7.78;3.63;;;;;;;;;;6156270;23;20009;-88
2023/05/20 10:02:08;;;;;;;6.80;3.70;;;20.00;97.50;;;;;;6153175;23;20010;-87
2023/05/20 10:04:36;;;;;;;6.72;3.95;;;20.10;97.30;;;;;;6152673;23;20001;-89
2023/05/20 10:07:49;;;;;;;6.53;3.88;;;20.30;97.10;;;;;;6155138;23;20005;-86
2023/05/20 10:10:52;;;;;;;6.18;3.53;;;20.40;96.90;;;;;;6158671;23;20337;-85
2023/05/20 10:13:34;;;;;;;4.00;3.30;;;20.40;97.00;;;;;;6155937;23;20025;-89
2023/05/20 10:16:30;;;;;;;7.38;3.90;;;20.40;97.10;;;;;;6156814;23;20017;-86
2023/05/20 10:19:26;;;;;;;6.15;3.83;;;20.40;97.30;;;;;;6154523;23;20203;-83
2023/05/20 10:21:57;;;;;;;5.57;3.67;;;20.90;96.70;;;;;;6154385;23;20107;-88
2023/05/20 10:24:30;;;;;;;5.97;4.18;;;20.90;96.60;;;;;;6157317;23;20005;-85
2023/05/20 10:26:57;;;;;;;5.72;3.58;;;20.80;96.80;;;;;;6154716;23;20419;-86
2023/05/20 10:29:23;;;;;;;5.18;3.60;;;;;;;;;;6153264;23;20012;-87
2023/05/20 10:31:51;;;;;;;7.40;3.92;;;20.70;96.20;;;;;;6152954;23;20512;-86
2023/05/20 10:34:21;;;;;;;5.65;3.58;;;21.00;96.30;;;;;;6153922;23;20005;-87
2023/05/20 10:36:47;;;;;;;5.95;4.13;;;;;;;;;;6151173;23;20408;-89
2023/05/20 10:39:16;;;;;;;5.10;3.38;;;;;;;;;;6153836;23;20006;-88
2023/05/20 10:41:43;;;;;;;6.93;3.60;;;;;;;;;;6154205;23;20040;-86
2023/05/20 10:44:09;;;;;;;4.75;3.50;;;;;;;;;;6154154;23;20001;-87
2023/05/20 10:46:34;;;;;;;5.97;3.85;;;20.60;96.80;;;;;;6154229;23;20014;-82
2023/05/20 10:49:04;;;;;;;6.43;4.00;;;20.40;96.80;;;;;;6152758;23;20086;-88
2023/05/20 10:51:35;;;;;;;4.88;3.80;;;;;;;;;;6149246;23;20092;-88
2023/05/20 10:54:01;;;;;;;7.00;3.80;;;;;;;;;;6152934;23;20012;-89
2023/05/20 10:56:27;;;;;;;7.53;3.88;;;;;;;;;;6155590;23;20006;-91
2023/05/20 10:58:56;;;;;;;5.22;3.67;;;20.80;96.50;;;;;;6153913;23;20060;-89
2023/05/20 11:01:25;;;;;;;4.60;3.70;;;21.00;96.40;;;;;;6155794;23;20064;-88
2023/05/20 11:03:53;;;;;;;5.32;3.70;;;21.30;96.10;;;;;;6159461;23;20025;-88
2023/05/20 11:06:19;;;;;;;5.43;3.45;;;;;;;;;;6154348;23;20092;-88
2023/05/20 11:08:46;;;;;;;6.32;3.67;;;;;;;;;;6154625;23;20341;-86
2023/05/20 11:11:13;;;;;;;5.22;3.88;;;;;;;;;;6153289;23;20064;-87
2023/05/20 11:13:39;;;;;;;5.38;3.53;;;;;;;;;;6155845;23;20009;-87
2023/05/20 11:16:06;;;;;;;4.72;3.35;;;;;;;;;;6155454;23;20046;-86
2023/05/20 11:18:32;;;;;;;6.82;3.45;;;;;;;;;;6154447;23;20403;-87
2023/05/20 11:20:58;;;;;;;5.88;3.90;;;20.80;95.90;;;;;;6152505;23;20429;-88
2023/05/20 11:23:26;;;;;;;5.45;4.03;;;20.90;96.00;;;;;;6128890;23;20017;-89
2023/05/20 11:25:53;;;;;;;6.43;3.75;;;;;;;;;;6153708;23;19997;-88
2023/05/20 11:28:20;;;;;;;7.95;3.65;;;;;;;;;;6157174;23;20389;-88
2023/05/20 11:30:46;;;;;;;6.43;3.90;;;;;;;;;;6155246;23;20006;-89
2023/05/20 11:33:13;;;;;;;4.82;3.58;;;;;;;;;;6155695;23;20032;-89
2023/05/20 11:35:44;;;;;;;5.80;3.83;;;;;;;;;;6159379;23;20013;-87
2023/05/20 11:38:10;;;;;;;6.57;3.40;;;;;;;;;;6156384;23;20010;-87
2023/05/20 11:40:37;;;;;;;5.30;3.67;;;;;;;;;;6158647;23;19999;-87
2023/05/20 11:43:03;;;;;;;4.85;3.85;;;;;;;;;;6157800;23;20001;-85
2023/05/20 11:45:39;;;;;;;5.55;3.45;;;;;;;;;;6156041;23;20036;-88
2023/05/20 11:48:05;;;;;;;7.38;3.70;;;;;;;;;;6153537;23;20060;-88
2023/05/20 11:50:38;;;;;;;6.40;4.25;;;;;;;;;;6153021;23;20010;-91
2023/05/20 11:53:04;;;;;;;5.85;3.97;;;;;;;;;;6153795;23;20084;-87
2023/05/20 11:55:33;;;;;;;5.88;3.70;;;;;;;;;;6157097;23;20011;-86
2023/05/20 11:58:00;;;;;;;5.32;3.70;;;;;;;;;;6152201;23;20017;-87
2023/05/20 12:00:26;;;;;;;5.15;3.97;;;;;;;;;;6151380;23;20009;-88
2023/05/20 12:02:52;;;;;;;5.60;3.60;;;;;;;;;;6153861;23;20012;-87
2023/05/20 12:05:19;;;;;;;5.60;3.47;;;;;;;;;;6154264;23;20002;-88
2023/05/20 12:07:45;;;;;;;6.70;3.92;;;;;;;;;;6154152;23;20009;-87
2023/05/20 12:10:12;;;;;;;5.10;4.13;;;;;;;;;;6159298;23;20080;-88
2023/05/20 12:12:38;;;;;;;5.28;3.97;;;;;;;;;;6154137;23;20009;-88
2023/05/20 12:15:05;;;;;;;7.13;3.90;;;;;;;;;;6154016;23;20060;-85
2023/05/20 12:17:50;;;;;;;6.13;3.92;;;;;;;;;;6151296;23;20013;-90
2023/05/20 12:20:17;;;;;;;4.95;3.70;;;21.90;94.50;;;;;;6151718;23;20465;-87
2023/05/20 12:22:46;;;;;;;5.63;3.70;;;;;;;;;;6154187;23;20024;-88
2023/05/20 12:25:13;;;;;;;4.80;3.90;;;22.00;94.50;;;;;;6155358;23;19997;-89
2023/05/20 12:27:39;;;;;;;6.95;3.95;;;;;;;;;;6153741;23;20404;-88
2023/05/20 12:30:06;;;;;;;6.07;4.07;;;;;;;;;;6153451;23;20014;-89
2023/05/20 12:32:32;;;;;;;6.38;4.10;;;;;;;;;;6151119;23;20001;-89
2023/05/20 12:34:58;;;;;;;6.30;4.30;;;;;;;;;;6151709;23;20053;-89
2023/05/20 12:37:24;;;;;;;4.95;3.80;;;;;;;;;;6153519;23;20040;-86
2023/05/20 12:39:50;;;;;;;6.97;4.07;;;;;;;;;;6153874;23;20013;-89
2023/05/20 12:42:16;;;;;;;6.10;4.38;;;;;;;;;;6151721;23;20020;-87
2023/05/20 12:44:42;;;;;;;6.40;4.00;;;22.00;94.10;;;;;;6151311;23;19997;-87
2023/05/20 12:47:08;;;;;;;7.38;4.10;;;22.00;94.10;;;;;;6149860;23;20048;-89
2023/05/20 12:49:34;;;;;;;6.75;4.10;;;;;;;;;;6151199;23;20010;-88
2023/05/20 12:52:00;;;;;;;5.63;4.05;;;22.10;94.10;;;;;;6152569;23;20014;-88
2023/05/20 12:54:32;;;;;;;6.72;4.18;;;;;;;;;;6155163;23;20322;-87
2023/05/20 12:56:58;;;;;;;6.82;4.70;;;;;;;;;;6154737;23;20318;-89
2023/05/20 12:59:24;;;;;;;6.40;4.70;;;;;;;;;;6152518;23;20009;-89
2023/05/20 13:01:50;;;;;;;5.45;3.90;;;;;;;;;;6152460;23;20521;-88
2023/05/20 13:04:16;;;;;;;5.43;3.92;;;;;;;;;;6155459;23;20072;-87
2023/05/20 13:06:42;;;;;;;6.57;4.13;;;;;;;;;;6159277;23;20002;-87
2023/05/20 13:09:08;;;;;;;6.18;3.97;;;;;;;;;;6158335;23;20002;-86
2023/05/20 13:11:34;;;;;;;5.70;4.53;;;;;;;;;;6157134;23;20016;-87
2023/05/20 13:14:00;;;;;;;9.18;4.60;;;;;;;;;;6156276;23;20016;-88
2023/05/20 13:16:26;;;;;;;8.05;4.60;;;;;;;;;;6155374;23;20010;-88
2023/05/20 13:18:52;;;;;;;5.75;4.30;;;21.60;94.30;;;;;;6153144;23;20008;-89
2023/05/20 13:21:18;;;;;;;5.28;4.20;;;21.70;94.60;;;;;;6154207;23;20096;-89
2023/05/20 13:23:44;;;;;;;5.88;4.68;;;21.60;94.80;;;;;;6151787;23;20005;-88
2023/05/20 13:26:10;;;;;;;6.03;4.00;;;;;;;;;;6153460;23;20508;-88
2023/05/20 13:28:36;;;;;;;5.10;3.97;;;;;;;;;;6151699;23;20008;-88
2023/05/20 13:31:03;;;;;;;5.78;4.35;;;21.80;94.20;;;;;;6154125;23;20088;-89
2023/05/20 13:33:29;;;;;;;6.35;4.22;;;;;;;;;;6152826;23;20509;-89
2023/05/20 13:35:55;;;;;;;5.72;4.10;;;;;;;;;;6153038;23;20009;-88
2023/05/20 13:38:21;;;;;;;6.28;4.20;;;;;;;;;;6127940;23;20476;-86
2023/05/20 13:40:48;;;;;;;5.63;4.40;;;;;;;;;;6151733;23;20001;-87
2023/05/20 13:43:14;;;;;;;6.22;4.45;;;;;;;;;;6153209;23;20009;-87
2023/05/20 13:45:40;;;;;;;6.93;4.28;;;;;;;;;;6151682;23;20001;-87
2023/05/20 13:48:06;;;;;;;6.97;4.50;;;;;;;;;;6131614;23;20076;-86
2023/05/20 13:50:32;;;;;;;8.60;5.00;;;;;;;;;;6155868;23;20001;-89
2023/05/20 13:52:58;;;;;;;11.95;4.80;;;;;;;;;;6151204;23;20006;-87
2023/05/20 13:55:24;;;;;;;6.90;4.55;;;;;;;;;;6154567;23;20009;-86
2023/05/20 13:57:53;;;;;;;6.00;4.55;;;;;;;;;;6147995;23;20438;-85
2023/05/20 14:00:19;;;;;;;6.00;4.75;;;;;;;;;;6149035;23;20453;-87
2023/05/20 14:02:45;;;;;;;6.22;4.63;;;;;;;;;;6152363;23;20068;-88
2023/05/20 14:05:11;;;;;;;5.93;4.15;;;21.90;94.20;;;;;;6152015;23;20005;-86
2023/05/20 14:07:38;;;;;;;6.18;4.55;;;;;;;;;;6152478;23;20028;-88
2023/05/20 14:10:04;;;;;;;6.32;4.55;;;22.00;93.80;;;;;;6152404;23;20526;-90
2023/05/20 14:12:30;;;;;;;8.65;4.57;;;;;;;;;;6147676;23;20016;-88
2023/05/20 14:14:56;;;;;;;8.45;5.15;;;21.90;93.80;;;;;;6152853;23;20005;-85